createdAt,value
2018-11-29T00:01:53.425Z,12.87
2018-11-29T00:04:21.071Z,12.77
2018-11-29T00:06:48.658Z,13.63
2018-11-29T00:09:16.217Z,12.80
2018-11-29T00:11:43.742Z,13.87
2018-11-29T00:14:11.375Z,13.27
2018-11-29T00:16:39.037Z,13.40
2018-11-29T00:19:06.611Z,13.93
2018-11-29T00:21:34.235Z,12.40
2018-11-29T00:24:01.694Z,12.27
2018-11-29T00:26:29.272Z,13.23
2018-11-29T00:28:56.736Z,14.33
2018-11-29T00:31:24.189Z,12.50
2018-11-29T00:33:51.759Z,14.07
2018-11-29T00:36:19.428Z,13.13
2018-11-29T00:38:46.882Z,13.33
2018-11-29T00:41:14.425Z,13.83
2018-11-29T00:43:42.019Z,13.17
2018-11-29T00:46:09.526Z,14.33
2018-11-29T00:48:37.162Z,12.97
2018-11-29T00:51:05.281Z,13.40
2018-11-29T00:53:32.797Z,14.23
2018-11-29T00:56:00.285Z,14.47
2018-11-29T00:58:27.756Z,13.77
2018-11-29T01:00:55.309Z,12.70
2018-11-29T01:03:22.963Z,12.80
2018-11-29T01:05:50.432Z,12.90
2018-11-29T01:08:17.999Z,13.47
2018-11-29T01:10:45.437Z,12.47
2018-11-29T01:13:13.032Z,13.43
2018-11-29T01:15:40.490Z,13.17
2018-11-29T01:18:08.037Z,12.63
2018-11-29T01:20:35.512Z,11.67
2018-11-29T01:23:03.045Z,12.47
2018-11-29T01:25:30.606Z,12.07
2018-11-29T01:27:58.137Z,12.20
2018-11-29T01:30:25.556Z,12.37
2018-11-29T01:32:53.130Z,12.80
2018-11-29T01:35:20.640Z,13.60
2018-11-29T01:37:48.443Z,13.07
2018-11-29T01:40:19.505Z,12.77
2018-11-29T01:42:50.504Z,12.97
2018-11-29T01:45:18.005Z,12.10
2018-11-29T01:47:45.468Z,11.20
2018-11-29T01:50:13.062Z,12.03
2018-11-29T01:52:40.524Z,11.00
2018-11-29T01:55:08.750Z,12.50
2018-11-29T01:57:36.276Z,12.10
2018-11-29T02:00:04.647Z,13.00
2018-11-29T02:02:32.185Z,12.13
2018-11-29T02:04:59.723Z,12.27
2018-11-29T02:07:27.295Z,12.30
2018-11-29T02:10:00.462Z,12.40
2018-11-29T02:12:28.043Z,12.47
2018-11-29T02:14:55.501Z,12.03
2018-11-29T02:17:23.025Z,12.20
2018-11-29T02:19:50.500Z,11.57
2018-11-29T02:22:17.947Z,12.00
2018-11-29T02:24:45.384Z,12.03
2018-11-29T02:27:12.928Z,11.90
2018-11-29T02:29:40.430Z,12.63
2018-11-29T02:32:07.929Z,12.17
2018-11-29T02:34:35.675Z,10.90
2018-11-29T02:37:03.233Z,11.73
2018-11-29T02:39:30.723Z,13.00
2018-11-29T02:41:58.348Z,12.40
2018-11-29T02:44:25.930Z,11.73
2018-11-29T02:46:53.495Z,11.80
2018-11-29T02:49:21.068Z,12.13
2018-11-29T02:51:48.578Z,12.07
2018-11-29T02:54:16.055Z,11.23
2018-11-29T02:56:43.571Z,11.10
2018-11-29T02:59:11.160Z,12.47
2018-11-29T03:01:38.603Z,13.17
2018-11-29T03:04:06.138Z,11.27
2018-11-29T03:06:33.592Z,10.73
2018-11-29T03:09:01.229Z,11.13
2018-11-29T03:11:28.794Z,11.87
2018-11-29T03:13:56.322Z,10.37
2018-11-29T03:16:23.927Z,11.03
2018-11-29T03:18:51.382Z,10.83
2018-11-29T03:21:19.008Z,11.30
2018-11-29T03:23:46.590Z,11.90
2018-11-29T03:26:14.150Z,11.20
2018-11-29T03:28:41.690Z,11.47
2018-11-29T03:31:09.320Z,12.17
2018-11-29T03:33:36.872Z,11.67
2018-11-29T03:36:04.634Z,11.73
2018-11-29T03:38:32.305Z,12.43
2018-11-29T03:41:00.098Z,12.00
2018-11-29T03:43:27.677Z,12.93
2018-11-29T03:45:55.209Z,12.37
2018-11-29T03:48:22.800Z,12.00
2018-11-29T03:50:50.338Z,12.33
2018-11-29T03:53:17.956Z,11.53
2018-11-29T03:55:45.480Z,11.80
2018-11-29T03:58:13.080Z,12.40
2018-11-29T04:00:40.700Z,12.57
2018-11-29T04:03:08.395Z,12.13
2018-11-29T04:05:35.997Z,12.90
2018-11-29T04:08:03.567Z,12.37
2018-11-29T04:10:31.223Z,11.80
2018-11-29T04:12:58.825Z,11.53
2018-11-29T04:15:26.457Z,10.67
2018-11-29T04:17:53.949Z,11.40
2018-11-29T04:20:21.418Z,11.67
2018-11-29T04:22:48.937Z,11.33
2018-11-29T04:25:16.516Z,11.90
2018-11-29T04:27:44.285Z,11.60
2018-11-29T04:30:14.045Z,11.07
2018-11-29T04:32:41.613Z,10.57
2018-11-29T04:35:09.787Z,10.90
2018-11-29T04:37:37.643Z,11.00
2018-11-29T04:40:07.717Z,11.33
2018-11-29T04:42:35.406Z,10.90
2018-11-29T04:45:03.433Z,11.57
2018-11-29T04:47:31.010Z,11.50
2018-11-29T04:49:58.639Z,11.47
2018-11-29T04:52:26.208Z,11.10
2018-11-29T04:54:53.727Z,11.67
2018-11-29T04:57:21.255Z,11.40
2018-11-29T04:59:48.721Z,10.50
2018-11-29T05:02:16.337Z,10.90
2018-11-29T05:04:44.009Z,11.37
2018-11-29T05:07:11.624Z,11.83
2018-11-29T05:09:39.285Z,10.33
2018-11-29T05:12:07.043Z,11.17
2018-11-29T05:14:34.747Z,11.47
2018-11-29T05:17:02.340Z,11.63
2018-11-29T05:19:29.995Z,11.53
2018-11-29T05:21:57.581Z,11.17
2018-11-29T05:24:25.211Z,10.67
2018-11-29T05:26:52.740Z,11.37
2018-11-29T05:29:20.213Z,10.23
2018-11-29T05:31:47.760Z,10.70
2018-11-29T05:34:15.362Z,10.80
2018-11-29T05:36:42.972Z,10.67
2018-11-29T05:39:10.540Z,10.67
2018-11-29T05:41:38.138Z,10.77
2018-11-29T05:44:05.670Z,10.37
2018-11-29T05:46:33.458Z,10.70
2018-11-29T05:49:01.046Z,10.00
2018-11-29T05:51:28.610Z,10.80
2018-11-29T05:53:56.412Z,10.13
2018-11-29T05:56:23.940Z,10.87
2018-11-29T05:58:51.568Z,9.37
2018-11-29T06:01:25.030Z,10.20
2018-11-29T06:03:52.688Z,9.83
2018-11-29T06:06:21.350Z,9.57
2018-11-29T06:08:48.799Z,9.63
2018-11-29T06:11:16.554Z,11.43
2018-11-29T06:13:44.188Z,11.33
2018-11-29T06:16:12.046Z,10.80
2018-11-29T06:18:39.723Z,10.60
2018-11-29T06:21:07.269Z,10.40
2018-11-29T06:23:34.924Z,10.07
2018-11-29T06:26:02.505Z,11.17
2018-11-29T06:28:30.022Z,10.30
2018-11-29T06:30:57.613Z,11.03
2018-11-29T06:33:25.114Z,11.00
2018-11-29T06:35:52.860Z,10.47
2018-11-29T06:38:20.553Z,10.67
2018-11-29T06:40:48.253Z,11.37
2018-11-29T06:43:16.097Z,11.07
2018-11-29T06:45:43.940Z,10.50
2018-11-29T06:48:11.776Z,10.20
2018-11-29T06:50:39.452Z,10.53
2018-11-29T06:53:12.618Z,10.43
2018-11-29T06:55:40.404Z,10.10
2018-11-29T06:58:08.027Z,10.40
2018-11-29T07:00:35.738Z,10.03
2018-11-29T07:03:03.355Z,10.93
2018-11-29T07:05:30.953Z,10.63
2018-11-29T07:07:58.501Z,11.07
2018-11-29T07:10:31.539Z,10.40
2018-11-29T07:12:59.397Z,10.60
2018-11-29T07:15:26.951Z,10.60
2018-11-29T07:17:54.658Z,10.07
2018-11-29T07:20:22.449Z,11.03
2018-11-29T07:22:50.157Z,10.57
2018-11-29T07:25:17.749Z,10.77
2018-11-29T07:27:45.219Z,10.07
2018-11-29T07:30:14.936Z,10.37
2018-11-29T07:32:42.460Z,10.10
2018-11-29T07:35:11.306Z,9.27
2018-11-29T07:37:38.995Z,9.60
2018-11-29T07:40:08.041Z,9.73
2018-11-29T07:42:35.592Z,9.20
2018-11-29T07:45:03.326Z,10.37
2018-11-29T07:47:30.966Z,10.43
2018-11-29T07:49:58.567Z,9.33
2018-11-29T07:52:26.175Z,9.83
2018-11-29T07:54:53.760Z,9.57
2018-11-29T07:57:21.415Z,9.50
2018-11-29T07:59:48.993Z,9.77
2018-11-29T08:02:16.468Z,9.33
2018-11-29T08:04:44.146Z,9.43
2018-11-29T08:07:11.718Z,9.30
2018-11-29T08:09:39.322Z,8.77
2018-11-29T08:12:07.051Z,8.77
2018-11-29T08:14:34.621Z,8.37
2018-11-29T08:17:02.262Z,8.30
2018-11-29T08:19:29.766Z,9.33
2018-11-29T08:21:57.360Z,7.63
2018-11-29T08:24:25.021Z,8.17
2018-11-29T08:26:52.618Z,8.60
2018-11-29T08:29:20.126Z,7.47
2018-11-29T08:31:47.562Z,7.33
2018-11-29T08:34:15.126Z,7.27
2018-11-29T08:36:42.768Z,7.23
2018-11-29T08:39:10.214Z,7.60
2018-11-29T08:41:37.850Z,7.57
2018-11-29T08:44:05.616Z,8.00
2018-11-29T08:46:33.279Z,8.13
2018-11-29T08:49:00.962Z,8.13
2018-11-29T08:51:28.454Z,6.77
2018-11-29T08:53:56.219Z,7.20
2018-11-29T08:56:23.825Z,6.80
2018-11-29T08:58:51.406Z,7.27
2018-11-29T09:01:18.993Z,7.53
2018-11-29T09:03:46.529Z,6.87
2018-11-29T09:06:14.068Z,8.00
2018-11-29T09:08:41.602Z,8.53
2018-11-29T09:11:09.202Z,9.07
2018-11-29T09:13:36.687Z,8.03
2018-11-29T09:16:04.278Z,9.23
2018-11-29T09:18:31.767Z,8.13
2018-11-29T09:20:59.344Z,7.43
2018-11-29T09:23:26.944Z,7.30
2018-11-29T09:25:54.683Z,7.10
2018-11-29T09:28:22.129Z,7.50
2018-11-29T09:30:49.740Z,7.13
2018-11-29T09:33:17.437Z,6.40
2018-11-29T09:35:44.994Z,6.40
2018-11-29T09:38:12.630Z,6.63
2018-11-29T09:40:40.095Z,7.37
2018-11-29T09:43:07.716Z,7.57
2018-11-29T09:45:35.208Z,7.40
2018-11-29T09:48:03.766Z,7.00
2018-11-29T09:50:31.271Z,7.57
2018-11-29T09:52:58.722Z,7.40
2018-11-29T09:55:26.203Z,7.13
2018-11-29T09:57:53.938Z,7.27
2018-11-29T10:01:02.497Z,7.47
2018-11-29T10:03:33.392Z,6.90
2018-11-29T10:06:01.103Z,7.80
2018-11-29T10:08:28.594Z,7.13
2018-11-29T10:10:56.417Z,7.03
2018-11-29T10:13:24.054Z,6.87
2018-11-29T10:15:51.523Z,7.40
2018-11-29T10:18:19.193Z,7.60
2018-11-29T10:20:46.868Z,7.97
2018-11-29T10:23:14.535Z,6.90
2018-11-29T10:25:42.115Z,7.70
2018-11-29T10:28:10.596Z,6.90
2018-11-29T10:30:53.951Z,7.73
2018-11-29T10:33:21.690Z,7.37
2018-11-29T10:35:49.181Z,7.53
2018-11-29T10:38:16.785Z,7.20
2018-11-29T10:40:45.075Z,8.10
2018-11-29T10:43:12.655Z,7.23
2018-11-29T10:45:40.176Z,7.40
2018-11-29T10:48:09.673Z,7.50
2018-11-29T10:50:37.162Z,7.30
2018-11-29T10:53:05.433Z,7.53
2018-11-29T10:55:33.025Z,7.60
2018-11-29T10:58:00.565Z,6.83
2018-11-29T11:00:33.231Z,7.43
2018-11-29T11:03:32.779Z,7.53
2018-11-29T11:06:00.287Z,7.23
2018-11-29T11:08:28.011Z,7.17
2018-11-29T11:10:55.611Z,7.63
2018-11-29T11:13:23.171Z,7.23
2018-11-29T11:15:50.633Z,7.13
2018-11-29T11:18:18.381Z,7.33
2018-11-29T11:20:46.067Z,7.77
2018-11-29T11:23:13.623Z,7.37
2018-11-29T11:25:41.279Z,7.20
2018-11-29T11:28:09.645Z,7.23
2018-11-29T11:30:38.185Z,7.47
2018-11-29T11:33:05.949Z,7.37
2018-11-29T11:35:33.673Z,7.07
2018-11-29T11:38:01.359Z,6.93
2018-11-29T11:40:28.959Z,7.00
2018-11-29T11:42:56.450Z,6.93
2018-11-29T11:45:24.093Z,6.93
2018-11-29T11:47:51.605Z,6.80
2018-11-29T11:50:20.772Z,7.10
2018-11-29T11:52:48.470Z,7.10
2018-11-29T11:55:18.960Z,6.93
2018-11-29T11:57:45.494Z,7.40
2018-11-29T12:00:16.418Z,7.07
2018-11-29T12:02:44.377Z,7.23
2018-11-29T12:05:12.082Z,7.33
2018-11-29T12:07:39.752Z,6.83
2018-11-29T12:10:10.797Z,7.30
2018-11-29T12:12:38.443Z,7.13
2018-11-29T12:15:08.045Z,6.83
2018-11-29T12:17:35.677Z,6.67
2018-11-29T12:20:03.810Z,6.97
2018-11-29T12:22:31.265Z,7.17
2018-11-29T12:24:58.829Z,7.47
2018-11-29T12:27:26.361Z,7.23
2018-11-29T12:29:53.878Z,7.47
2018-11-29T12:32:21.477Z,6.97
2018-11-29T12:34:49.108Z,7.13
2018-11-29T12:37:16.656Z,6.63
2018-11-29T12:39:44.216Z,7.93
2018-11-29T12:42:11.780Z,7.73
2018-11-29T12:44:39.436Z,7.57
2018-11-29T12:47:06.963Z,7.63
2018-11-29T12:49:36.181Z,7.30
2018-11-29T12:52:03.711Z,7.17
2018-11-29T12:54:31.360Z,7.93
2018-11-29T12:56:59.032Z,7.90
2018-11-29T12:59:26.571Z,8.83
2018-11-29T13:01:54.318Z,8.67
2018-11-29T13:04:22.079Z,8.97
2018-11-29T13:06:49.568Z,8.70
2018-11-29T13:09:17.190Z,7.80
2018-11-29T13:11:45.194Z,7.87
2018-11-29T13:14:12.928Z,8.87
2018-11-29T13:16:40.415Z,8.93
2018-11-29T13:19:07.991Z,8.70
2018-11-29T13:21:35.467Z,9.57
2018-11-29T13:24:03.357Z,9.33
2018-11-29T13:26:30.858Z,10.07
2018-11-29T13:28:58.516Z,10.10
2018-11-29T13:31:26.194Z,10.53
2018-11-29T13:33:53.730Z,10.60
2018-11-29T13:36:21.402Z,10.00
2018-11-29T13:38:49.044Z,9.77
2018-11-29T13:41:16.613Z,11.13
2018-11-29T13:43:44.190Z,11.90
2018-11-29T13:46:11.927Z,10.97
2018-11-29T13:48:39.553Z,11.20
2018-11-29T13:51:07.120Z,11.27
2018-11-29T13:53:34.705Z,10.83
2018-11-29T13:56:02.259Z,12.10
2018-11-29T13:58:29.758Z,11.20
2018-11-29T14:00:57.296Z,12.10
2018-11-29T14:03:24.841Z,11.67
2018-11-29T14:05:52.367Z,11.87
2018-11-29T14:08:19.961Z,11.90
2018-11-29T14:10:47.599Z,11.77
2018-11-29T14:13:15.125Z,12.17
2018-11-29T14:15:42.797Z,12.47
2018-11-29T14:18:10.310Z,11.57
2018-11-29T14:20:37.884Z,11.77
2018-11-29T14:23:05.508Z,11.60
2018-11-29T14:25:33.131Z,11.57
2018-11-29T14:28:00.739Z,12.10
2018-11-29T14:30:29.438Z,11.77
2018-11-29T14:32:58.267Z,12.07
2018-11-29T14:35:26.572Z,11.83
2018-11-29T14:37:54.160Z,12.47
2018-11-29T14:40:22.830Z,11.43
2018-11-29T14:42:50.378Z,11.63
2018-11-29T14:45:19.058Z,11.30
2018-11-29T14:47:46.498Z,11.37
2018-11-29T14:50:19.438Z,11.70
2018-11-29T14:52:47.244Z,11.80
2018-11-29T14:55:14.761Z,12.73
2018-11-29T14:57:42.352Z,12.37
2018-11-29T15:00:11.316Z,12.80
2018-11-29T15:02:38.964Z,12.63
2018-11-29T15:05:13.980Z,12.43
2018-11-29T15:07:41.620Z,12.50
2018-11-29T15:10:09.780Z,11.50
2018-11-29T15:12:38.532Z,12.67
2018-11-29T15:15:09.907Z,11.53
2018-11-29T15:17:38.511Z,11.20
2018-11-29T15:20:10.174Z,10.97
2018-11-29T15:22:37.689Z,11.93
2018-11-29T15:25:06.478Z,12.03
2018-11-29T15:27:34.089Z,12.00
2018-11-29T15:30:01.626Z,11.83
2018-11-29T15:32:29.307Z,11.80
2018-11-29T15:34:57.710Z,12.07
2018-11-29T15:37:25.202Z,11.33
2018-11-29T15:39:52.710Z,11.87
2018-11-29T15:42:20.292Z,11.40
2018-11-29T15:44:48.110Z,11.97
2018-11-29T15:47:15.814Z,12.07
2018-11-29T15:49:43.337Z,11.80
2018-11-29T15:52:13.356Z,12.10
2018-11-29T15:54:40.988Z,11.07
2018-11-29T15:57:09.422Z,10.60
2018-11-29T15:59:37.178Z,11.80
2018-11-29T16:02:04.882Z,11.53
2018-11-29T16:04:33.572Z,11.67
2018-11-29T16:07:01.138Z,11.23
2018-11-29T16:09:28.615Z,11.60
2018-11-29T16:11:56.268Z,11.73
2018-11-29T16:14:24.057Z,11.53
2018-11-29T16:16:51.652Z,12.00
2018-11-29T16:19:19.362Z,11.63
2018-11-29T16:21:46.854Z,11.03
2018-11-29T16:24:14.541Z,12.07
2018-11-29T16:26:42.009Z,11.83
2018-11-29T16:29:09.520Z,11.33
2018-11-29T16:31:37.194Z,11.80
2018-11-29T16:34:04.819Z,11.60
2018-11-29T16:36:32.408Z,11.57
2018-11-29T16:38:59.899Z,11.93
2018-11-29T16:41:27.535Z,11.77
2018-11-29T16:43:55.153Z,11.47
2018-11-29T16:46:26.567Z,12.00
2018-11-29T16:48:54.131Z,12.43
2018-11-29T16:51:21.849Z,11.47
2018-11-29T16:53:49.521Z,11.40
2018-11-29T16:56:17.111Z,11.73
2018-11-29T16:58:44.917Z,11.10
2018-11-29T17:01:12.585Z,11.30
2018-11-29T17:03:40.152Z,11.50
2018-11-29T17:06:07.752Z,11.60
2018-11-29T17:08:35.258Z,12.53
2018-11-29T17:11:03.022Z,11.40
2018-11-29T17:13:30.618Z,12.13
2018-11-29T17:15:58.189Z,11.27
2018-11-29T17:18:26.358Z,10.33
2018-11-29T17:20:53.844Z,11.53
2018-11-29T17:23:21.482Z,11.97
2018-11-29T17:25:49.096Z,11.23
2018-11-29T17:28:16.766Z,12.00
2018-11-29T17:30:48.220Z,11.67
2018-11-29T17:33:15.866Z,11.90
2018-11-29T17:35:43.760Z,12.00
2018-11-29T17:38:11.382Z,12.03
2018-11-29T17:40:38.917Z,12.13
2018-11-29T17:43:07.670Z,11.37
2018-11-29T17:45:35.500Z,11.50
2018-11-29T17:48:07.804Z,11.93
2018-11-29T17:50:36.853Z,11.97
2018-11-29T17:53:05.144Z,12.23
2018-11-29T17:55:32.677Z,12.07
2018-11-29T17:58:00.395Z,12.53
2018-11-29T18:00:30.889Z,12.40
2018-11-29T18:02:58.533Z,11.40
2018-11-29T18:05:26.110Z,13.07
2018-11-29T18:07:53.851Z,11.30
2018-11-29T18:10:21.985Z,12.17
2018-11-29T18:12:52.174Z,12.27
2018-11-29T18:15:21.468Z,13.07
2018-11-29T18:17:49.026Z,12.73
2018-11-29T18:20:16.737Z,11.50
2018-11-29T18:22:44.448Z,13.17
2018-11-29T18:25:12.711Z,11.90
2018-11-29T18:27:41.145Z,13.50
2018-11-29T18:30:13.226Z,12.20
2018-11-29T18:32:40.983Z,14.00
2018-11-29T18:35:10.059Z,13.40
2018-11-29T18:37:37.662Z,13.60
2018-11-29T18:40:17.583Z,13.23
2018-11-29T18:42:51.052Z,13.00
2018-11-29T18:45:19.257Z,12.50
2018-11-29T18:47:48.519Z,13.30
2018-11-29T18:50:18.202Z,13.83
2018-11-29T18:52:48.865Z,13.53
2018-11-29T18:55:17.119Z,13.10
2018-11-29T18:57:44.658Z,14.40
2018-11-29T19:00:16.719Z,13.77
2018-11-29T19:02:44.479Z,12.43
2018-11-29T19:05:12.459Z,12.80
2018-11-29T19:07:40.131Z,14.00
2018-11-29T19:10:10.304Z,13.13
2018-11-29T19:12:38.778Z,12.30
2018-11-29T19:15:08.080Z,13.57
2018-11-29T19:17:35.883Z,12.07
2018-11-29T19:22:53.024Z,13.17
2018-11-29T19:25:20.877Z,13.63
2018-11-29T19:27:49.637Z,13.67
2018-11-29T19:30:21.318Z,16.30
2018-11-29T19:32:51.715Z,16.60
2018-11-29T19:35:19.489Z,13.87
2018-11-29T19:37:47.146Z,14.03
2018-11-29T19:40:15.859Z,13.13
2018-11-29T19:42:44.674Z,13.70
2018-11-29T19:45:14.490Z,14.77
2018-11-29T19:47:42.727Z,13.30
2018-11-29T19:50:14.010Z,13.50
2018-11-29T19:52:42.650Z,12.73
2018-11-29T19:55:12.052Z,14.53
2018-11-29T19:57:39.596Z,13.37
2018-11-29T20:00:11.281Z,12.33
2018-11-29T20:02:38.826Z,13.20
2018-11-29T20:05:07.992Z,12.80
2018-11-29T20:07:35.654Z,12.47
2018-11-29T20:10:03.868Z,12.13
2018-11-29T20:12:31.531Z,12.93
2018-11-29T20:14:59.230Z,13.63
2018-11-29T20:17:26.839Z,12.70
2018-11-29T20:19:54.374Z,13.13
2018-11-29T20:22:22.816Z,12.50
2018-11-29T20:24:50.465Z,12.83
2018-11-29T20:27:18.064Z,12.80
2018-11-29T20:29:45.911Z,13.30
2018-11-29T20:32:13.918Z,13.33
2018-11-29T20:34:41.567Z,12.50
2018-11-29T20:37:09.240Z,12.83
2018-11-29T20:39:37.795Z,12.13
2018-11-29T20:42:05.510Z,13.10
2018-11-29T20:44:33.299Z,13.27
2018-11-29T20:47:00.962Z,12.97
2018-11-29T20:49:28.550Z,12.87
2018-11-29T20:51:56.259Z,13.53
2018-11-29T20:54:24.064Z,13.30
2018-11-29T20:56:53.025Z,13.70
2018-11-29T20:59:20.600Z,13.40
2018-11-29T21:01:48.464Z,13.63
2018-11-29T21:04:16.190Z,13.80
2018-11-29T21:06:43.825Z,13.87
2018-11-29T21:09:15.600Z,13.03
2018-11-29T21:11:47.790Z,14.17
2018-11-29T21:14:11.069Z,13.30
2018-11-29T21:16:38.968Z,13.10
2018-11-29T21:19:06.781Z,12.97
2018-11-29T21:21:36.367Z,13.47
2018-11-29T21:24:04.669Z,12.40
2018-11-29T21:26:32.579Z,12.90
2018-11-29T21:29:00.487Z,14.40
2018-11-29T21:31:28.120Z,13.47
2018-11-29T21:33:55.878Z,13.73
2018-11-29T21:36:24.197Z,14.00
2018-11-29T21:38:51.661Z,13.80
2018-11-29T21:41:19.407Z,13.50
2018-11-29T21:43:46.960Z,12.73
2018-11-29T21:46:15.039Z,13.30
2018-11-29T21:48:43.369Z,13.20
2018-11-29T21:51:11.089Z,13.10
2018-11-29T21:53:38.729Z,13.40
2018-11-29T21:56:06.764Z,13.73
2018-11-29T21:58:34.844Z,12.73
2018-11-29T22:01:03.230Z,13.30
2018-11-29T22:03:31.160Z,13.47
2018-11-29T22:05:59.137Z,13.57
2018-11-29T22:08:27.071Z,13.40
2018-11-29T22:10:55.037Z,13.67
2018-11-29T22:13:23.501Z,14.27
2018-11-29T22:15:51.515Z,12.77
2018-11-29T22:18:22.415Z,13.33
2018-11-29T22:20:53.045Z,12.63
2018-11-29T22:23:21.036Z,13.57
2018-11-29T22:25:50.023Z,13.60
2018-11-29T22:28:20.640Z,13.70
2018-11-29T22:30:49.062Z,13.57
2018-11-29T22:33:17.023Z,14.20
2018-11-29T22:35:44.836Z,13.73
2018-11-29T22:38:12.982Z,14.60
2018-11-29T22:40:41.525Z,13.67
2018-11-29T22:43:09.479Z,13.83
2018-11-29T22:45:37.096Z,14.10
2018-11-29T22:48:04.844Z,14.17
2018-11-29T22:50:32.564Z,13.60
2018-11-29T22:53:00.287Z,14.40
2018-11-29T22:55:28.146Z,14.57
2018-11-29T22:57:55.852Z,13.70
2018-11-29T23:00:23.417Z,14.53
2018-11-29T23:02:51.118Z,13.60
2018-11-29T23:05:18.838Z,13.97
2018-11-29T23:07:46.658Z,14.50
2018-11-29T23:10:15.053Z,14.03
2018-11-29T23:12:42.814Z,13.23
2018-11-29T23:15:11.722Z,13.30
2018-11-29T23:17:39.470Z,13.33
2018-11-29T23:20:08.271Z,13.43
2018-11-29T23:22:36.920Z,14.27
2018-11-29T23:25:06.493Z,13.60
2018-11-29T23:27:34.087Z,14.83
2018-11-29T23:30:01.813Z,14.00
2018-11-29T23:32:29.416Z,14.27
2018-11-29T23:34:57.179Z,13.63
2018-11-29T23:37:25.110Z,14.00
2018-11-29T23:39:52.676Z,14.33
2018-11-29T23:42:20.438Z,13.60
2018-11-29T23:44:47.915Z,14.73
2018-11-29T23:47:15.702Z,14.07
2018-11-29T23:49:43.339Z,13.90
2018-11-29T23:52:11.024Z,14.03
2018-11-29T23:54:38.745Z,13.53
2018-11-29T23:57:06.272Z,13.97
2018-11-29T23:59:34.684Z,13.17
